Aragon, NM (87820)

1:05 PM MDT on May 06, 2015 (GMT -0600)
RAWS | | Change Station
CLOSE
Current Station
Personal Weather Station
Location: Luna, NM
Elevation: 7045 ft
Nearby Weather Stations

Elev 7045 ft 33.82 °N, 108.94 °W | Updated 58 minutes ago

Mostly Cloudy
Mostly Cloudy
61 °F
Feels Like 61 °F
N
0
Wind Variable Wind from North
Gusts 21.0 mph

Today
High -- | Low -- °F
--% Chance of Precip.
Yesterday
High -- | Low -- °F
Precip. -- in
6:20 AM 8:02 PM
Waning Gibbous, 93% visible
Pressure 29.70 in
Visibility 10.0 miles
Clouds Mostly Cloudy 8000 ft
Dew Point 35 °F
Humidity 38%
Rainfall in
Snow Depth Not available.
UV 7 out of 12
Pollen 6.40 out of 12
Air Quality Not available.
Flu Activity Local Activity
METAR KSJN 061854Z AUTO VRB06KT 10SM BKN080 19/03 A2991 RMK AO2 SLP058 T01890033

More Conditions Fewer Conditions

Pressure 29.70 in
Visibility 10.0 miles
Clouds Mostly Cloudy 8000 ft
Dew Point 35 °F
Humidity 38%
Rainfall in
Snow Depth Not available.
UV 7 out of 12
Pollen 6.40 out of 12
Air Quality Not available.
Flu Activity Local Activity
METAR KSJN 061854Z AUTO VRB06KT 10SM BKN080 19/03 A2991 RMK AO2 SLP058 T01890033

More Conditions Fewer Conditions

10-Day Weather Forecast

Almanac

Astronomy

May. 06, 2015 Rise Set
Actual Time
Civil Twilight
Nautical Twilight
Astronomical Twilight
Moon
Length of Visible Light
Length of Day
Tomorrow will be .
, % of the Moon is Illuminated

Today's Extremes

State Highs State Lows

Community

WunderPhotos

Upload Photos

1,818,993 photos uploaded!

WunderBlogs® & News

Nearby

Air Quality

  Air Quality AQ Index Pollutant
Not available.

Snow Depth

Station Depth Elevation

Earthquake Activity

City Distance Mag. Time & Date
Minimum magnitude displayed is 2.5.

Coastal Water Temperatures

Place Temperature

Stations

Nearby Weather Stations

Station Location Temp. Windchill Dew Point Humidity Wind Precip. Elev Updated Type